F/V Bougainville — FMAS — position and weather

sailwx.info

Track history (hours):
 
Tides and Currents Weather Stations Pressure Air Temp Water Temp Dewpoint Dewpoint Depression Visibility Wind Speed Wind Dir Waves Ship Positions

F/V Bougainville

Last reported at 2018-May-22 13:55 UTC. Time now 2018-May-26 21:44 UTC.
Position N 47°57' W 005°16'.

Length 24 m; draft 4.1 m.

Type: Fishing. MMSI: 228190600.

Date/timePositionNaut miles runAvg speedWind from/ knotsBaromVisibWave heightAir tempDewpointWater temp
2018-May-22 13:55N 47°57' W 005°16'6 8.6
2018-May-22 13:14N 47°55' W 005°07'2 8.3
2018-May-22 13:00N 47°55' W 005°05'4 8.1
2018-May-22 12:30N 47°53' W 004°59'4 8.4
2018-May-22 12:00N 47°52' W 004°53'4 8.5
2018-May-22 11:29N 47°51' W 004°46'20 0.6
2018-May-20 22:51N 47°48' W 004°17'0 0.0
2018-May-19 05:50N 47°48' W 004°17'0 0.0
2018-May-19 05:30N 47°48' W 004°17'0 0.0
2018-May-19 04:30N 47°48' W 004°17'0 0.0
2018-May-19 03:42N 47°48' W 004°17'0 0.0
2018-May-18 22:42N 47°48' W 004°17'0 0.0
2018-May-18 22:29N 47°48' W 004°17'0 0.0
2018-May-18 08:05N 47°48' W 004°17'0 0.0
2018-May-18 08:00N 47°48' W 004°17'0 0.0
2018-May-18 06:15N 47°48' W 004°17'0 0.0
2018-May-18 05:39N 47°48' W 004°17'0 0.0
2018-May-18 05:03N 47°48' W 004°17'0 0.0
2018-May-18 05:00N 47°48' W 004°17'0 0.0
2018-May-18 04:31N 47°48' W 004°17'19 0.7
2018-May-17 01:43N 47°57' W 004°41'2 8.7
2018-May-17 01:30N 47°59' W 004°43'4 7.8
2018-May-17 01:00N 48°02' W 004°46'3 6.6
2018-May-17 00:30N 48°04' W 004°50'5 9.2
2018-May-17 00:00N 48°07' W 004°55'5 9.3
2018-May-16 23:30N 48°10' W 005°00'5 9.6
2018-May-16 22:59N 48°13' W 005°06'510.0
2018-May-16 22:28N 48°16' W 005°12'  
Track history (hours):
 
Tides and Currents Weather Stations Pressure Air Temp Water Temp Dewpoint Dewpoint Depression Visibility Wind Speed Wind Dir Waves Ship Positions

F/V Bougainville

Last reported at 2018-May-22 13:55 UTC. Time now 2018-May-26 21:44 UTC.
Position N 47°57' W 005°16'.

Length 24 m; draft 4.1 m.

Type: Fishing. MMSI: 228190600.

Date/timePositionNaut miles runAvg speedWind from/ knotsBaromVisibWave heightAir tempDewpointWater temp
2018-May-22 13:55N 47°57' W 005°16'6 8.6
2018-May-22 13:14N 47°55' W 005°07'2 8.3
2018-May-22 13:00N 47°55' W 005°05'4 8.1
2018-May-22 12:30N 47°53' W 004°59'4 8.4
2018-May-22 12:00N 47°52' W 004°53'4 8.5
2018-May-22 11:29N 47°51' W 004°46'20 0.6
2018-May-20 22:51N 47°48' W 004°17'0 0.0
2018-May-19 05:50N 47°48' W 004°17'0 0.0
2018-May-19 05:30N 47°48' W 004°17'0 0.0
2018-May-19 04:30N 47°48' W 004°17'0 0.0
2018-May-19 03:42N 47°48' W 004°17'0 0.0
2018-May-18 22:42N 47°48' W 004°17'0 0.0
2018-May-18 22:29N 47°48' W 004°17'0 0.0
2018-May-18 08:05N 47°48' W 004°17'0 0.0
2018-May-18 08:00N 47°48' W 004°17'0 0.0
2018-May-18 06:15N 47°48' W 004°17'0 0.0
2018-May-18 05:39N 47°48' W 004°17'0 0.0
2018-May-18 05:03N 47°48' W 004°17'0 0.0
2018-May-18 05:00N 47°48' W 004°17'0 0.0
2018-May-18 04:31N 47°48' W 004°17'19 0.7
2018-May-17 01:43N 47°57' W 004°41'2 8.7
2018-May-17 01:30N 47°59' W 004°43'4 7.8
2018-May-17 01:00N 48°02' W 004°46'3 6.6
2018-May-17 00:30N 48°04' W 004°50'5 9.2
2018-May-17 00:00N 48°07' W 004°55'5 9.3
2018-May-16 23:30N 48°10' W 005°00'5 9.6
2018-May-16 22:59N 48°13' W 005°06'510.0
2018-May-16 22:28N 48°16' W 005°12'  

Dump ship's entire track history